ENSD/SDN METAR and TAF weather

Enter ICAO airport designator
Station Type Date Time Source
ENSD METAR 2019/04/25 20:20 UTC NOAA

ENSD 252020Z 08009KT 9999 -SHRA FEW042 BKN065 15/07 Q1013 RMK WIND 1138FT 14009G23KT


Station Type Date Time Source
ENSD Decoded METAR 2019/04/25 20:20 UTC NOAA

Sandane / Anda, Norway (ENSD) 61-50N 006-07E 60M
Apr 25, 2019 - 04:20 PM EDT / 2019.04.25 2020 UTC
Wind: from the E (080 degrees) at 10 MPH (9 KT):0
Visibility: greater than 7 mile(s):0
Sky conditions: mostly cloudy
Weather: light rain showers
Temperature: 59 F (15 C)
Dew Point: 44 F (7 C)
Relative Humidity: 58%
Pressure (altimeter): 29.91 in. Hg (1013 hPa)
ob: ENSD 252020Z 08009KT 9999 -SHRA FEW042 BKN065 15/07 Q1013 RMK WIND 1138FT 14009G23KT
cycle: 20

Station Type Date Time Source
ENSD TAF UTC NOAA

Error!

Example: see airport list